createdAt,value
2019-05-25T00:00:34.881Z,981.51
2019-05-25T00:01:34.882Z,981.50
2019-05-25T00:02:34.766Z,981.46
2019-05-25T00:03:34.763Z,981.44
2019-05-25T00:04:34.648Z,981.43
2019-05-25T00:05:34.644Z,981.44
2019-05-25T00:06:34.528Z,981.43
2019-05-25T00:07:34.531Z,981.41
2019-05-25T00:08:34.532Z,981.43
2019-05-25T00:09:34.407Z,981.38
2019-05-25T00:10:34.408Z,981.42
2019-05-25T00:11:34.289Z,981.37
2019-05-25T00:12:34.289Z,981.42
2019-05-25T00:13:34.170Z,981.38
2019-05-25T00:14:34.169Z,981.42
2019-05-25T00:15:34.055Z,981.36
2019-05-25T00:16:34.050Z,981.37
2019-05-25T00:17:34.049Z,981.36
2019-05-25T00:18:33.933Z,981.36
2019-05-25T00:19:33.936Z,981.35
2019-05-25T00:20:33.814Z,981.33
2019-05-25T00:21:33.811Z,981.33
2019-05-25T00:22:33.695Z,981.38
2019-05-25T00:23:33.693Z,981.34
2019-05-25T00:24:33.577Z,981.36
2019-05-25T00:25:33.575Z,981.32
2019-05-25T00:26:33.574Z,981.34
2019-05-25T00:27:33.456Z,981.39
2019-05-25T00:28:33.455Z,981.39
2019-05-25T00:29:33.344Z,981.36
2019-05-25T00:30:33.342Z,981.37
2019-05-25T00:31:33.224Z,981.36
2019-05-25T00:32:33.217Z,981.37
2019-05-25T00:33:33.217Z,981.41
2019-05-25T00:34:33.100Z,981.40
2019-05-25T00:35:33.100Z,981.39
2019-05-25T00:36:32.984Z,981.37
2019-05-25T00:37:32.982Z,981.40
2019-05-25T00:38:32.864Z,981.40
2019-05-25T00:39:32.863Z,981.40
2019-05-25T00:40:32.747Z,981.42
2019-05-25T00:41:32.741Z,981.39
2019-05-25T00:42:32.755Z,981.44
2019-05-25T00:43:32.623Z,981.42
2019-05-25T00:44:32.622Z,981.38
2019-05-25T00:45:32.507Z,981.38
2019-05-25T00:46:32.505Z,981.34
2019-05-25T00:47:32.390Z,981.37
2019-05-25T00:48:32.387Z,981.36
2019-05-25T00:49:32.270Z,981.33
2019-05-25T00:50:32.267Z,981.35
2019-05-25T00:51:32.266Z,981.37
2019-05-25T00:52:32.150Z,981.36
2019-05-25T00:53:32.148Z,981.35
2019-05-25T00:54:32.031Z,981.38
2019-05-25T00:55:32.029Z,981.36
2019-05-25T00:56:31.912Z,981.32
2019-05-25T00:57:31.910Z,981.34
2019-05-25T00:58:31.910Z,981.31
2019-05-25T00:59:31.792Z,981.39
2019-05-25T01:00:31.802Z,981.41
2019-05-25T01:01:31.677Z,981.35
2019-05-25T01:02:31.673Z,981.38
2019-05-25T01:03:31.555Z,981.38
2019-05-25T01:04:31.557Z,981.36
2019-05-25T01:05:31.442Z,981.32
2019-05-25T01:06:31.438Z,981.29
2019-05-25T01:07:31.434Z,981.29
2019-05-25T01:08:31.319Z,981.28
2019-05-25T01:09:31.321Z,981.30
2019-05-25T01:10:31.198Z,981.32
2019-05-25T01:11:31.196Z,981.31
2019-05-25T01:12:31.080Z,981.28
2019-05-25T01:13:31.077Z,981.34
2019-05-25T01:14:31.057Z,981.30
2019-05-25T01:15:30.962Z,981.26
2019-05-25T01:16:30.959Z,981.32
2019-05-25T01:17:30.841Z,981.32
2019-05-25T01:18:30.841Z,981.31
2019-05-25T01:19:30.724Z,981.32
2019-05-25T01:20:30.723Z,981.36
2019-05-25T01:21:30.605Z,981.36
2019-05-25T01:22:30.601Z,981.30
2019-05-25T01:23:30.487Z,981.30
2019-05-25T01:24:43.331Z,981.31
2019-05-25T01:25:30.485Z,981.33
2019-05-25T01:26:30.367Z,981.33
2019-05-25T01:27:30.364Z,981.36
2019-05-25T01:28:30.250Z,981.33
2019-05-25T01:29:30.251Z,981.33
2019-05-25T01:30:30.129Z,981.34
2019-05-25T01:31:30.132Z,981.39
2019-05-25T01:32:30.126Z,981.37
2019-05-25T01:33:30.009Z,981.35
2019-05-25T01:34:30.009Z,981.37
2019-05-25T01:35:29.891Z,981.34
2019-05-25T01:36:29.888Z,981.32
2019-05-25T01:37:29.772Z,981.33
2019-05-25T01:38:29.769Z,981.32
2019-05-25T01:39:29.653Z,981.29
2019-05-25T01:40:29.651Z,981.32
2019-05-25T01:41:29.652Z,981.33
2019-05-25T01:42:29.533Z,981.34
2019-05-25T01:43:29.534Z,981.32
2019-05-25T01:44:29.416Z,981.37
2019-05-25T01:45:29.413Z,981.34
2019-05-25T01:46:29.297Z,981.34
2019-05-25T01:47:29.294Z,981.33
2019-05-25T01:48:29.177Z,981.32
2019-05-25T01:49:29.176Z,981.33
2019-05-25T01:50:29.176Z,981.34
2019-05-25T01:51:29.064Z,981.36
2019-05-25T01:52:29.057Z,981.33
2019-05-25T01:53:28.957Z,981.37
2019-05-25T01:54:28.940Z,981.37
2019-05-25T01:55:28.822Z,981.36
2019-05-25T01:56:28.819Z,981.36
2019-05-25T01:57:28.706Z,981.39
2019-05-25T01:58:28.703Z,981.38
2019-05-25T01:59:28.700Z,981.35
2019-05-25T02:00:28.582Z,981.34
2019-05-25T02:01:28.582Z,981.35
2019-05-25T02:02:28.464Z,981.30
2019-05-25T02:03:28.472Z,981.35
2019-05-25T02:04:28.346Z,981.30
2019-05-25T02:05:28.342Z,981.28
2019-05-25T02:06:28.228Z,981.30
2019-05-25T02:07:28.225Z,981.32
2019-05-25T02:08:28.224Z,981.32
2019-05-25T02:09:28.106Z,981.34
2019-05-25T02:10:28.104Z,981.34
2019-05-25T02:11:27.989Z,981.38
2019-05-25T02:12:27.986Z,981.35
2019-05-25T02:13:27.870Z,981.41
2019-05-25T02:14:27.867Z,981.37
2019-05-25T02:15:27.869Z,981.38
2019-05-25T02:16:27.749Z,981.34
2019-05-25T02:17:27.750Z,981.35
2019-05-25T02:18:27.632Z,981.31
2019-05-25T02:19:27.629Z,981.34
2019-05-25T02:20:27.516Z,981.35
2019-05-25T02:21:27.511Z,981.33
2019-05-25T02:22:27.396Z,981.32
2019-05-25T02:23:27.403Z,981.37
2019-05-25T02:24:27.392Z,981.37
2019-05-25T02:25:27.273Z,981.39
2019-05-25T02:26:27.278Z,981.37
2019-05-25T02:27:27.156Z,981.37
2019-05-25T02:28:27.158Z,981.34
2019-05-25T02:29:27.043Z,981.39
2019-05-25T02:30:27.036Z,981.40
2019-05-25T02:31:26.918Z,981.41
2019-05-25T02:32:26.916Z,981.40
2019-05-25T02:34:58.490Z,981.41
2019-05-25T02:35:58.360Z,981.36
2019-05-25T02:36:58.241Z,981.41
2019-05-25T02:37:58.247Z,981.43
2019-05-25T02:38:58.124Z,981.42
2019-05-25T02:39:58.120Z,981.38
2019-05-25T02:40:58.120Z,981.41
2019-05-25T02:41:58.002Z,981.38
2019-05-25T02:42:58.002Z,981.37
2019-05-25T02:43:57.884Z,981.35
2019-05-25T02:44:57.925Z,981.36
2019-05-25T02:45:57.766Z,981.31
2019-05-25T02:46:57.762Z,981.29
2019-05-25T02:47:57.764Z,981.33
2019-05-25T02:48:57.651Z,981.28
2019-05-25T02:49:57.645Z,981.32
2019-05-25T02:50:57.527Z,981.34
2019-05-25T02:51:57.527Z,981.38
2019-05-25T02:52:57.412Z,981.39
2019-05-25T02:53:57.409Z,981.33
2019-05-25T02:54:57.291Z,981.34
2019-05-25T02:55:57.287Z,981.36
2019-05-25T02:56:57.310Z,981.36
2019-05-25T02:57:57.176Z,981.37
2019-05-25T02:58:57.168Z,981.33
2019-05-25T02:59:57.053Z,981.40
2019-05-25T03:00:57.049Z,981.40
2019-05-25T03:01:56.933Z,981.41
2019-05-25T03:02:56.932Z,981.44
2019-05-25T03:03:56.814Z,981.48
2019-05-25T03:04:56.812Z,981.47
2019-05-25T03:05:56.813Z,981.48
2019-05-25T03:06:56.697Z,981.45
2019-05-25T03:07:56.693Z,981.46
2019-05-25T03:08:56.580Z,981.47
2019-05-25T03:09:56.576Z,981.43
2019-05-25T03:10:56.460Z,981.45
2019-05-25T03:11:56.457Z,981.42
2019-05-25T03:12:56.340Z,981.43
2019-05-25T03:13:56.335Z,981.43
2019-05-25T03:14:56.336Z,981.50
2019-05-25T03:15:56.218Z,981.47
2019-05-25T03:16:56.218Z,981.44
2019-05-25T03:17:56.100Z,981.49
2019-05-25T03:18:56.101Z,981.54
2019-05-25T03:19:55.983Z,981.58
2019-05-25T03:21:12.459Z,981.57
2019-05-25T03:21:55.865Z,981.64
2019-05-25T03:22:55.861Z,981.62
2019-05-25T03:23:55.861Z,981.60
2019-05-25T03:24:55.744Z,981.61
2019-05-25T03:25:55.742Z,981.61
2019-05-25T03:26:55.626Z,981.61
2019-05-25T03:27:55.623Z,981.58
2019-05-25T03:28:55.512Z,981.59
2019-05-25T03:29:55.504Z,981.60
2019-05-25T03:30:55.390Z,981.60
2019-05-25T03:31:55.398Z,981.62
2019-05-25T03:32:55.386Z,981.59
2019-05-25T03:33:55.268Z,981.62
2019-05-25T03:34:55.279Z,981.57
2019-05-25T03:35:55.151Z,981.66
2019-05-25T03:36:55.161Z,981.63
2019-05-25T03:37:55.032Z,981.62
2019-05-25T03:38:55.029Z,981.63
2019-05-25T03:39:54.912Z,981.56
2019-05-25T03:40:54.909Z,981.62
2019-05-25T03:41:54.910Z,981.60
2019-05-25T03:42:54.792Z,981.64
2019-05-25T03:43:54.791Z,981.65
2019-05-25T03:44:54.674Z,981.65
2019-05-25T03:45:54.672Z,981.69
2019-05-25T03:46:54.560Z,981.72
2019-05-25T03:47:54.553Z,981.75
2019-05-25T03:48:54.440Z,981.79
2019-05-25T03:49:54.433Z,981.77
2019-05-25T03:50:54.434Z,981.75
2019-05-25T03:51:54.316Z,981.72
2019-05-25T03:52:54.315Z,981.71
2019-05-25T03:53:54.198Z,981.73
2019-05-25T03:54:54.198Z,981.67
2019-05-25T03:56:05.148Z,981.72
2019-05-25T03:56:54.077Z,981.73
2019-05-25T03:57:53.962Z,981.69
2019-05-25T03:58:53.962Z,981.74
2019-05-25T03:59:53.961Z,981.72
2019-05-25T04:00:53.849Z,981.69
2019-05-25T04:01:53.840Z,981.71
2019-05-25T04:02:53.729Z,981.70
2019-05-25T04:03:53.721Z,981.71
2019-05-25T04:04:53.605Z,981.69
2019-05-25T04:05:53.602Z,981.64
2019-05-25T04:06:53.485Z,981.64
2019-05-25T04:07:53.483Z,981.64
2019-05-25T04:08:53.489Z,981.63
2019-05-25T04:09:53.364Z,981.63
2019-05-25T04:10:53.365Z,981.67
2019-05-25T04:11:53.248Z,981.62
2019-05-25T04:12:53.246Z,981.63
2019-05-25T04:13:53.129Z,981.66
2019-05-25T04:14:53.130Z,981.68
2019-05-25T04:15:53.012Z,981.71
2019-05-25T04:16:53.007Z,981.73
2019-05-25T04:17:53.008Z,981.69
2019-05-25T04:18:52.891Z,981.65
2019-05-25T04:19:52.888Z,981.70
2019-05-25T04:20:52.772Z,981.71
2019-05-25T04:21:52.771Z,981.68
2019-05-25T04:22:52.655Z,981.70
2019-05-25T04:23:52.651Z,981.66
2019-05-25T04:24:52.536Z,981.71
2019-05-25T04:25:52.532Z,981.75
2019-05-25T04:26:52.535Z,981.78
2019-05-25T04:27:52.414Z,981.73
2019-05-25T04:28:52.414Z,981.76
2019-05-25T04:29:52.296Z,981.78
2019-05-25T04:30:52.294Z,981.74
2019-05-25T04:31:52.180Z,981.79
2019-05-25T04:32:52.175Z,981.77
2019-05-25T04:33:52.059Z,981.77
2019-05-25T04:34:52.057Z,981.79
2019-05-25T04:35:51.944Z,981.81
2019-05-25T04:36:51.938Z,981.78
2019-05-25T04:37:51.937Z,981.80
2019-05-25T04:38:51.827Z,981.81
2019-05-25T04:39:51.819Z,981.80
2019-05-25T04:40:51.703Z,981.81
2019-05-25T04:41:51.704Z,981.83
2019-05-25T04:42:51.583Z,981.81
2019-05-25T04:43:51.582Z,981.84
2019-05-25T04:44:51.466Z,981.88
2019-05-25T04:45:51.465Z,981.90
2019-05-25T04:46:51.464Z,981.87
2019-05-25T04:47:51.345Z,981.90
2019-05-25T04:48:51.379Z,981.93
2019-05-25T04:49:51.226Z,981.95
2019-05-25T04:50:51.239Z,981.94
2019-05-25T04:51:51.156Z,982.01
2019-05-25T04:52:51.105Z,981.97
2019-05-25T04:53:50.988Z,982.01
2019-05-25T04:54:50.986Z,982.03
2019-05-25T04:55:50.987Z,982.01
2019-05-25T04:56:50.868Z,982.03
2019-05-25T04:57:50.868Z,982.01
2019-05-25T04:58:50.753Z,981.97
2019-05-25T04:59:50.748Z,981.97
2019-05-25T05:00:50.635Z,982.02
2019-05-25T05:01:50.630Z,981.99
2019-05-25T05:02:50.513Z,981.96
2019-05-25T05:03:50.542Z,981.99
2019-05-25T05:04:50.511Z,982.01
2019-05-25T05:05:50.393Z,982.00
2019-05-25T05:06:50.410Z,981.99
2019-05-25T05:07:50.274Z,982.02
2019-05-25T05:08:50.273Z,981.99
2019-05-25T05:10:02.128Z,982.01
2019-05-25T05:10:50.155Z,982.02
2019-05-25T05:11:50.039Z,982.03
2019-05-25T05:12:50.036Z,982.02
2019-05-25T05:13:50.035Z,982.02
2019-05-25T05:14:49.917Z,982.00
2019-05-25T05:15:49.919Z,982.01
2019-05-25T05:16:49.801Z,981.98
2019-05-25T05:17:49.798Z,982.01
2019-05-25T05:18:49.682Z,981.99
2019-05-25T05:19:49.679Z,981.98
2019-05-25T05:20:49.561Z,981.99
2019-05-25T05:21:49.565Z,981.99
2019-05-25T05:22:49.560Z,981.97
2019-05-25T05:23:49.441Z,982.00
2019-05-25T05:24:49.441Z,981.94
2019-05-25T05:25:49.323Z,981.97
2019-05-25T05:26:55.710Z,981.95
2019-05-25T05:27:49.206Z,981.98
2019-05-25T05:28:49.347Z,981.97
2019-05-25T05:29:49.086Z,981.97
2019-05-25T05:30:49.088Z,981.95
2019-05-25T05:31:48.967Z,982.02
2019-05-25T05:32:48.965Z,982.00
2019-05-25T05:33:48.965Z,982.08
2019-05-25T05:34:48.847Z,982.07
2019-05-25T05:35:48.846Z,982.08
2019-05-25T05:36:48.729Z,982.12
2019-05-25T05:37:48.727Z,982.15
2019-05-25T05:38:48.613Z,982.19
2019-05-25T05:39:48.612Z,982.19
2019-05-25T05:40:48.495Z,982.20
2019-05-25T05:41:48.489Z,982.21
2019-05-25T05:42:48.490Z,982.21
2019-05-25T05:43:48.372Z,982.23
2019-05-25T05:44:48.373Z,982.21
2019-05-25T05:45:48.253Z,982.22
2019-05-25T05:46:48.273Z,982.22
2019-05-25T05:47:48.136Z,982.24
2019-05-25T05:48:48.138Z,982.26
2019-05-25T05:49:48.016Z,982.24
2019-05-25T05:50:48.013Z,982.25
2019-05-25T05:51:48.013Z,982.26
2019-05-25T05:52:47.901Z,982.25
2019-05-25T05:53:47.895Z,982.28
2019-05-25T05:54:47.778Z,982.21
2019-05-25T05:55:47.776Z,982.23
2019-05-25T05:56:47.660Z,982.22
2019-05-25T05:57:47.656Z,982.23
2019-05-25T05:58:47.540Z,982.19
2019-05-25T05:59:47.538Z,982.20
2019-05-25T06:00:47.538Z,982.23
2019-05-25T06:01:47.420Z,982.18
2019-05-25T06:02:47.421Z,982.25
2019-05-25T06:03:47.306Z,982.19
2019-05-25T06:04:47.299Z,982.21
2019-05-25T06:05:47.183Z,982.22
2019-05-25T06:06:47.181Z,982.20
2019-05-25T06:07:47.064Z,982.21
2019-05-25T06:08:47.063Z,982.26
2019-05-25T06:09:46.946Z,982.23
2019-05-25T06:10:46.944Z,982.23
2019-05-25T06:11:46.943Z,982.23
2019-05-25T06:12:46.826Z,982.22
2019-05-25T06:13:46.827Z,982.24
2019-05-25T06:14:46.708Z,982.27
2019-05-25T06:15:46.706Z,982.35
2019-05-25T06:16:46.591Z,982.32
2019-05-25T06:17:46.588Z,982.34
2019-05-25T06:18:46.472Z,982.28
2019-05-25T06:19:46.469Z,982.32
2019-05-25T06:20:46.467Z,982.29
2019-05-25T06:21:46.351Z,982.34
2019-05-25T06:22:46.349Z,982.32
2019-05-25T06:23:46.238Z,982.35
2019-05-25T06:24:46.230Z,982.37
2019-05-25T06:25:46.115Z,982.36
2019-05-25T06:26:46.112Z,982.39
2019-05-25T06:27:45.995Z,982.38
2019-05-25T06:28:46.028Z,982.41
2019-05-25T06:29:45.992Z,982.41
2019-05-25T06:30:45.876Z,982.39
2019-05-25T06:31:45.874Z,982.44
2019-05-25T06:32:45.759Z,982.44
2019-05-25T06:33:45.753Z,982.41
2019-05-25T06:34:45.641Z,982.44
2019-05-25T06:35:45.640Z,982.42
2019-05-25T06:36:45.518Z,982.45
2019-05-25T06:37:45.516Z,982.46
2019-05-25T06:38:45.516Z,982.44
2019-05-25T06:39:45.406Z,982.45
2019-05-25T06:40:45.398Z,982.48
2019-05-25T06:41:45.282Z,982.45
2019-05-25T06:42:45.278Z,982.47
2019-05-25T06:43:45.169Z,982.45
2019-05-25T06:44:45.160Z,982.44
2019-05-25T06:45:45.044Z,982.51
2019-05-25T06:46:45.040Z,982.46
2019-05-25T06:47:45.040Z,982.46
2019-05-25T06:48:44.922Z,982.45
2019-05-25T06:49:45.424Z,982.49
2019-05-25T06:50:44.805Z,982.49
2019-05-25T06:51:44.803Z,982.48
2019-05-25T06:52:44.724Z,982.48
2019-05-25T06:53:44.686Z,982.49
2019-05-25T06:54:44.567Z,982.44
2019-05-25T06:55:44.565Z,982.48
2019-05-25T06:56:44.452Z,982.43
2019-05-25T06:57:44.446Z,982.44
2019-05-25T06:58:44.446Z,982.36
2019-05-25T06:59:44.330Z,982.43
2019-05-25T07:00:44.327Z,982.37
2019-05-25T07:01:44.211Z,982.43
2019-05-25T07:02:44.208Z,982.43
2019-05-25T07:03:44.092Z,982.42
2019-05-25T07:04:44.090Z,982.47
2019-05-25T07:05:43.973Z,982.44
2019-05-25T07:06:43.971Z,982.42
2019-05-25T07:07:43.970Z,982.46
2019-05-25T07:08:43.854Z,982.44
2019-05-25T07:09:43.852Z,982.40
2019-05-25T07:10:43.735Z,982.41
2019-05-25T07:11:43.733Z,982.44
2019-05-25T07:12:43.617Z,982.47
2019-05-25T07:13:43.613Z,982.47
2019-05-25T07:14:43.499Z,982.45
2019-05-25T07:15:43.494Z,982.45
2019-05-25T07:16:43.495Z,982.46
2019-05-25T07:17:43.376Z,982.43
2019-05-25T07:18:43.379Z,982.47
2019-05-25T07:19:43.265Z,982.44
2019-05-25T07:20:43.262Z,982.44
2019-05-25T07:21:43.141Z,982.42
2019-05-25T07:22:43.139Z,982.48
2019-05-25T07:23:43.023Z,982.47
2019-05-25T07:24:43.018Z,982.50
2019-05-25T07:25:43.021Z,982.53
2019-05-25T07:26:42.901Z,982.48
2019-05-25T07:27:57.875Z,982.47
2019-05-25T07:28:42.786Z,982.46
2019-05-25T07:29:42.782Z,982.51
2019-05-25T07:30:42.665Z,982.52
2019-05-25T07:31:42.662Z,982.48
2019-05-25T07:32:42.557Z,982.49
2019-05-25T07:33:42.543Z,982.50
2019-05-25T07:34:42.544Z,982.52
2019-05-25T07:35:42.429Z,982.50
2019-05-25T07:36:42.424Z,982.49
2019-05-25T07:37:42.311Z,982.48
2019-05-25T07:38:42.308Z,982.45
2019-05-25T07:39:42.190Z,982.49
2019-05-25T07:40:42.187Z,982.44
2019-05-25T07:41:42.071Z,982.50
2019-05-25T07:42:42.074Z,982.45
2019-05-25T07:43:42.068Z,982.45
2019-05-25T07:44:41.951Z,982.42
2019-05-25T07:45:41.954Z,982.46
2019-05-25T07:46:41.833Z,982.48
2019-05-25T07:47:41.889Z,982.51
2019-05-25T07:48:41.715Z,982.52
2019-05-25T07:49:41.711Z,982.47
2019-05-25T07:50:41.594Z,982.52
2019-05-25T07:51:41.593Z,982.47
2019-05-25T07:52:41.479Z,982.49
2019-05-25T07:53:41.474Z,982.46
2019-05-25T07:54:41.475Z,982.45
2019-05-25T07:55:41.356Z,982.47
2019-05-25T07:56:41.355Z,982.46
2019-05-25T07:57:41.248Z,982.45
2019-05-25T07:58:41.235Z,982.46
2019-05-25T07:59:41.118Z,982.45
2019-05-25T08:00:41.117Z,982.49
2019-05-25T08:01:41.001Z,982.47
2019-05-25T08:02:40.999Z,982.51
2019-05-25T08:03:41.003Z,982.48
2019-05-25T08:04:40.880Z,982.49
2019-05-25T08:05:40.882Z,982.49
2019-05-25T08:06:40.765Z,982.49
2019-05-25T08:07:40.760Z,982.47
2019-05-25T08:08:40.649Z,982.51
2019-05-25T08:09:40.641Z,982.50
2019-05-25T08:10:40.524Z,982.45
2019-05-25T08:11:40.523Z,982.47
2019-05-25T08:12:40.523Z,982.48
2019-05-25T08:13:40.405Z,982.48
2019-05-25T08:14:40.404Z,982.49
2019-05-25T08:15:40.288Z,982.48
2019-05-25T08:16:40.286Z,982.51
2019-05-25T08:17:40.176Z,982.49
2019-05-25T08:18:40.166Z,982.50
2019-05-25T08:19:40.049Z,982.51
2019-05-25T08:20:40.047Z,982.50
2019-05-25T08:21:40.048Z,982.53
2019-05-25T08:22:39.931Z,982.50
2019-05-25T08:23:39.929Z,982.51
2019-05-25T08:24:39.816Z,982.55
2019-05-25T08:25:39.811Z,982.53
2019-05-25T08:26:39.693Z,982.52
2019-05-25T08:27:39.689Z,982.50
2019-05-25T08:28:39.584Z,982.51
2019-05-25T08:29:39.571Z,982.55
2019-05-25T08:30:39.618Z,982.55
2019-05-25T08:31:39.453Z,982.55
2019-05-25T08:32:39.452Z,982.59
2019-05-25T08:33:39.342Z,982.55
2019-05-25T08:34:39.334Z,982.60
2019-05-25T08:35:39.216Z,982.57
2019-05-25T08:36:39.215Z,982.56
2019-05-25T08:37:39.097Z,982.56
2019-05-25T08:38:39.098Z,982.53
2019-05-25T08:39:39.097Z,982.57
2019-05-25T08:40:38.979Z,982.60
2019-05-25T08:41:38.977Z,982.50
2019-05-25T08:42:38.863Z,982.57
2019-05-25T08:43:38.859Z,982.54
2019-05-25T08:44:38.750Z,982.53
2019-05-25T08:45:38.742Z,982.53
2019-05-25T08:46:38.623Z,982.53
2019-05-25T08:47:38.622Z,982.52
2019-05-25T08:48:38.620Z,982.51
2019-05-25T08:49:38.508Z,982.51
2019-05-25T08:50:38.942Z,982.53
2019-05-25T08:51:38.405Z,982.50
2019-05-25T08:52:38.608Z,982.49
2019-05-25T08:53:41.775Z,982.46
2019-05-25T08:54:38.264Z,982.46
2019-05-25T08:55:38.147Z,982.50
2019-05-25T08:56:38.146Z,982.52
2019-05-25T08:57:38.148Z,982.47
2019-05-25T08:58:47.998Z,982.47
2019-05-25T08:59:38.027Z,982.47
2019-05-25T09:00:37.911Z,982.51
2019-05-25T09:01:37.906Z,982.51
2019-05-25T09:02:37.790Z,982.50
2019-05-25T09:03:37.787Z,982.49
2019-05-25T09:04:37.788Z,982.51
2019-05-25T09:05:37.670Z,982.52
2019-05-25T09:06:37.677Z,982.56
2019-05-25T09:07:37.555Z,982.51
2019-05-25T09:08:37.549Z,982.54
2019-05-25T09:09:37.433Z,982.55
2019-05-25T09:10:37.430Z,982.56
2019-05-25T09:11:37.314Z,982.62
2019-05-25T09:12:37.311Z,982.59
2019-05-25T09:13:37.314Z,982.60
2019-05-25T09:14:37.194Z,982.59
2019-05-25T09:15:37.200Z,982.62
2019-05-25T09:16:37.082Z,982.60
2019-05-25T09:17:37.075Z,982.61
2019-05-25T09:18:36.958Z,982.58
2019-05-25T09:19:36.958Z,982.59
2019-05-25T09:20:36.839Z,982.60
2019-05-25T09:21:36.836Z,982.58
2019-05-25T09:22:36.842Z,982.65
2019-05-25T09:23:36.721Z,982.61
2019-05-25T09:24:36.718Z,982.66
2019-05-25T09:25:36.670Z,982.65
2019-05-25T09:26:36.605Z,982.61
2019-05-25T09:27:36.489Z,982.63
2019-05-25T09:28:36.483Z,982.63
2019-05-25T09:29:36.366Z,982.62
2019-05-25T09:30:36.361Z,982.67
2019-05-25T09:31:36.361Z,982.66
2019-05-25T09:32:36.245Z,982.65
2019-05-25T09:33:36.242Z,982.69
2019-05-25T09:34:36.130Z,982.64
2019-05-25T09:35:36.124Z,982.65
2019-05-25T09:36:36.007Z,982.63
2019-05-25T09:37:36.005Z,982.66
2019-05-25T09:38:35.944Z,982.64
2019-05-25T09:39:35.886Z,982.62
2019-05-25T09:40:35.886Z,982.60
2019-05-25T09:41:35.767Z,982.63
2019-05-25T09:42:35.766Z,982.58
2019-05-25T09:43:35.652Z,982.55
2019-05-25T09:44:35.647Z,982.59
2019-05-25T09:45:35.531Z,982.58
2019-05-25T09:46:35.529Z,982.58
2019-05-25T09:47:35.415Z,982.56
2019-05-25T09:48:38.129Z,982.60
2019-05-25T09:49:35.413Z,982.61
2019-05-25T09:50:35.292Z,982.55
2019-05-25T09:51:35.290Z,982.57
2019-05-25T09:52:35.175Z,982.54
2019-05-25T09:53:35.172Z,982.55
2019-05-25T09:54:35.065Z,982.55
2019-05-25T09:55:35.053Z,982.55
2019-05-25T09:56:35.052Z,982.55
2019-05-25T09:57:34.934Z,982.56
2019-05-25T09:58:34.940Z,982.54
2019-05-25T09:59:34.824Z,982.55
2019-05-25T10:00:39.744Z,982.49
2019-05-25T10:01:34.699Z,982.53
2019-05-25T10:02:34.769Z,982.48
2019-05-25T10:03:34.581Z,982.45
2019-05-25T10:04:34.577Z,982.50
2019-05-25T10:05:34.578Z,982.48
2019-05-25T10:06:34.459Z,982.51
2019-05-25T10:07:34.459Z,982.50
2019-05-25T10:08:34.342Z,982.49
2019-05-25T10:09:34.342Z,982.45
2019-05-25T10:10:34.223Z,982.45
2019-05-25T10:11:34.221Z,982.44
2019-05-25T10:12:34.113Z,982.44
2019-05-25T10:13:34.102Z,982.38
2019-05-25T10:14:34.105Z,982.38
2019-05-25T10:15:33.984Z,982.37
2019-05-25T10:16:33.985Z,982.45
2019-05-25T10:17:33.867Z,982.39
2019-05-25T10:18:33.864Z,982.38
2019-05-25T10:19:33.750Z,982.38
2019-05-25T10:20:33.745Z,982.35
2019-05-25T10:21:33.628Z,982.36
2019-05-25T10:22:33.626Z,982.36
2019-05-25T10:23:33.626Z,982.29
2019-05-25T10:24:33.511Z,982.31
2019-05-25T10:25:33.507Z,982.24
2019-05-25T10:26:33.391Z,982.28
2019-05-25T10:27:34.309Z,982.24
2019-05-25T10:28:33.272Z,982.17
2019-05-25T10:29:37.386Z,982.20
2019-05-25T10:30:33.276Z,982.23
2019-05-25T10:31:33.154Z,982.22
2019-05-25T10:32:33.151Z,982.19
2019-05-25T10:33:33.156Z,982.19
2019-05-25T10:34:33.035Z,982.20
2019-05-25T10:35:32.915Z,982.21
2019-05-25T10:36:32.916Z,982.22
2019-05-25T10:37:32.799Z,982.20
2019-05-25T10:38:32.797Z,982.24
2019-05-25T10:39:32.796Z,982.23
2019-05-25T10:40:32.675Z,982.20
2019-05-25T10:41:32.675Z,982.23
2019-05-25T10:42:32.559Z,982.28
2019-05-25T10:43:32.556Z,982.25
2019-05-25T10:44:32.447Z,982.25
2019-05-25T10:45:32.437Z,982.26
2019-05-25T10:46:32.346Z,982.28
2019-05-25T10:47:32.319Z,982.28
2019-05-25T10:48:32.326Z,982.32
2019-05-25T10:49:32.203Z,982.30
2019-05-25T10:50:32.205Z,982.32
2019-05-25T10:51:32.084Z,982.24
2019-05-25T10:52:32.081Z,982.24
2019-05-25T10:53:31.963Z,982.28
2019-05-25T10:54:31.966Z,982.26
2019-05-25T10:55:31.847Z,982.22
2019-05-25T10:56:31.845Z,982.22
2019-05-25T10:57:31.846Z,982.23
2019-05-25T10:58:31.729Z,982.19
2019-05-25T10:59:31.724Z,982.15
2019-05-25T11:00:31.610Z,982.17
2019-05-25T11:01:31.605Z,982.19
2019-05-25T11:02:31.488Z,982.18
2019-05-25T11:03:31.487Z,982.20
2019-05-25T11:04:31.488Z,982.21
2019-05-25T11:05:31.374Z,982.17
2019-05-25T11:06:34.695Z,982.17
2019-05-25T11:07:31.270Z,982.15
2019-05-25T11:08:31.249Z,982.21
2019-05-25T11:09:31.181Z,982.18
2019-05-25T11:10:31.131Z,982.21
2019-05-25T11:11:31.014Z,982.21
2019-05-25T11:12:31.016Z,982.23
2019-05-25T11:13:31.011Z,982.20
2019-05-25T11:14:30.904Z,982.25
2019-05-25T11:15:30.895Z,982.25
2019-05-25T11:16:30.833Z,982.25
2019-05-25T11:17:30.779Z,982.21
2019-05-25T11:18:30.673Z,982.21
2019-05-25T11:19:30.659Z,982.24
2019-05-25T11:20:30.545Z,982.22
2019-05-25T11:21:30.536Z,982.23
2019-05-25T11:22:30.537Z,982.24
2019-05-25T11:23:30.430Z,982.23
2019-05-25T11:24:30.418Z,982.21
2019-05-25T11:25:30.306Z,982.25
2019-05-25T11:26:30.300Z,982.28
2019-05-25T11:27:30.181Z,982.23
2019-05-25T11:28:30.179Z,982.25
2019-05-25T11:29:30.183Z,982.22
2019-05-25T11:30:30.060Z,982.29
2019-05-25T11:31:30.093Z,982.23
2019-05-25T11:32:29.943Z,982.25
2019-05-25T11:33:29.941Z,982.22
2019-05-25T11:34:29.824Z,982.22
2019-05-25T11:35:29.824Z,982.23
2019-05-25T11:36:29.707Z,982.18
2019-05-25T11:37:29.711Z,982.20
2019-05-25T11:38:29.709Z,982.19
2019-05-25T11:39:29.593Z,982.19
2019-05-25T11:40:29.588Z,982.17
2019-05-25T11:41:29.480Z,982.18
2019-05-25T11:42:29.465Z,982.13
2019-05-25T11:43:29.354Z,982.13
2019-05-25T11:44:29.347Z,982.11
2019-05-25T11:45:29.351Z,982.12
2019-05-25T11:46:29.231Z,982.10
2019-05-25T11:47:29.227Z,982.04
2019-05-25T11:48:29.115Z,982.05
2019-05-25T11:49:29.118Z,982.08
2019-05-25T11:50:28.993Z,982.01
2019-05-25T11:51:28.989Z,982.03
2019-05-25T11:52:28.874Z,982.03
2019-05-25T11:53:28.870Z,982.04
2019-05-25T11:54:28.873Z,982.02
2019-05-25T11:55:28.756Z,982.05
2019-05-25T11:56:28.756Z,982.04
2019-05-25T11:57:28.640Z,982.03
2019-05-25T11:58:28.634Z,982.07
2019-05-25T11:59:28.523Z,982.08
2019-05-25T12:00:28.515Z,982.03
2019-05-25T12:01:29.115Z,982.03
2019-05-25T12:02:28.402Z,982.01
2019-05-25T12:03:28.395Z,981.99
2019-05-25T12:04:28.286Z,981.94
2019-05-25T12:05:28.277Z,981.89
2019-05-25T12:06:28.161Z,981.97
2019-05-25T12:07:28.157Z,981.97
2019-05-25T12:08:28.158Z,981.95
2019-05-25T12:09:28.042Z,981.94
2019-05-25T12:10:28.040Z,981.94
2019-05-25T12:11:27.922Z,981.90
2019-05-25T12:12:27.920Z,981.90
2019-05-25T12:13:27.805Z,981.89
2019-05-25T12:14:27.801Z,981.86
2019-05-25T12:15:27.684Z,981.88
2019-05-25T12:16:27.682Z,981.87
2019-05-25T12:17:27.716Z,981.86
2019-05-25T12:18:27.566Z,981.76
2019-05-25T12:19:27.564Z,981.75
2019-05-25T12:20:27.447Z,981.72
2019-05-25T12:21:27.444Z,981.76
2019-05-25T12:22:27.328Z,981.76
2019-05-25T12:23:27.326Z,981.77
2019-05-25T12:24:27.325Z,981.78
2019-05-25T12:25:27.215Z,981.76
2019-05-25T12:26:27.212Z,981.77
2019-05-25T12:27:27.090Z,981.75
2019-05-25T12:28:27.089Z,981.82
2019-05-25T12:29:26.972Z,981.76